createdAt,value
2022-11-14T00:01:20.711Z,36.97
2022-11-14T00:04:06.288Z,34.10
2022-11-14T00:06:51.636Z,39.00
2022-11-14T00:09:38.644Z,37.47
2022-11-14T00:12:24.259Z,34.03
2022-11-14T00:15:10.707Z,37.17
2022-11-14T00:17:56.114Z,34.27
2022-11-14T00:20:41.577Z,36.60
2022-11-14T00:23:26.820Z,32.47
2022-11-14T00:26:12.154Z,33.50
2022-11-14T00:28:57.715Z,40.63
2022-11-14T00:31:43.410Z,38.03
2022-11-14T00:34:28.602Z,40.03
2022-11-14T00:37:13.798Z,36.63
2022-11-14T00:39:59.206Z,40.53
2022-11-14T00:42:44.869Z,38.13
2022-11-14T00:45:30.643Z,47.73
2022-11-14T00:48:16.691Z,40.90
2022-11-14T00:51:02.167Z,45.23
2022-11-14T00:53:47.446Z,39.33
2022-11-14T00:56:32.699Z,42.13
2022-11-14T00:59:17.815Z,42.90
2022-11-14T01:02:03.162Z,41.87
2022-11-14T01:04:48.675Z,46.30
2022-11-14T01:07:34.042Z,47.70
2022-11-14T01:10:19.624Z,45.37
2022-11-14T01:13:05.303Z,40.90
2022-11-14T01:15:50.872Z,42.57
2022-11-14T01:18:37.515Z,40.30
2022-11-14T01:21:23.128Z,50.10
2022-11-14T01:24:08.458Z,59.83
2022-11-14T01:26:56.299Z,55.87
2022-11-14T01:29:41.696Z,53.97
2022-11-14T01:32:27.664Z,55.90
2022-11-14T01:35:13.123Z,62.20
2022-11-14T01:37:58.507Z,68.33
2022-11-14T01:40:47.022Z,69.60
2022-11-14T01:43:38.393Z,64.47
2022-11-14T01:46:35.603Z,69.20
2022-11-14T01:49:26.938Z,84.93
2022-11-14T01:52:17.062Z,75.47
2022-11-14T01:55:07.397Z,71.27
2022-11-14T01:57:53.069Z,75.97
2022-11-14T02:00:38.303Z,91.80
2022-11-14T02:03:23.686Z,73.10
2022-11-14T02:06:14.036Z,101.50
2022-11-14T02:09:04.299Z,81.53
2022-11-14T02:11:51.268Z,74.47
2022-11-14T02:14:37.994Z,85.70
2022-11-14T02:17:30.057Z,75.20
2022-11-14T02:20:28.585Z,93.67
2022-11-14T02:23:14.896Z,86.77
2022-11-14T02:26:00.267Z,85.77
2022-11-14T02:28:46.706Z,85.60
2022-11-14T02:31:32.066Z,89.87
2022-11-14T02:34:20.051Z,90.33
2022-11-14T02:37:06.475Z,82.83
2022-11-14T02:39:52.035Z,91.80
2022-11-14T02:42:37.709Z,104.73
2022-11-14T02:45:23.341Z,86.07
2022-11-14T02:48:08.657Z,83.70
2022-11-14T02:50:53.871Z,81.97
2022-11-14T02:53:39.187Z,102.20
2022-11-14T02:56:24.579Z,98.67
2022-11-14T02:59:10.265Z,89.33
2022-11-14T03:01:56.000Z,99.30
2022-11-14T03:04:41.648Z,96.43
2022-11-14T03:07:27.106Z,96.30
2022-11-14T03:10:13.966Z,95.43
2022-11-14T03:12:59.748Z,93.87
2022-11-14T03:15:45.216Z,99.90
2022-11-14T03:18:30.676Z,102.43
2022-11-14T03:21:20.051Z,95.30
2022-11-14T03:24:05.731Z,99.63
2022-11-14T03:26:51.000Z,93.50
2022-11-14T03:29:36.240Z,94.03
2022-11-14T03:32:21.637Z,95.93
2022-11-14T03:35:07.839Z,104.63
2022-11-14T03:37:56.382Z,99.83
2022-11-14T03:40:42.490Z,105.77
2022-11-14T03:43:33.517Z,95.97
2022-11-14T03:46:18.858Z,118.47
2022-11-14T03:49:05.271Z,113.77
2022-11-14T03:51:50.856Z,101.03
2022-11-14T03:54:36.543Z,106.17
2022-11-14T03:57:21.872Z,111.27
2022-11-14T04:00:08.158Z,90.67
2022-11-14T04:02:57.922Z,103.53
2022-11-14T04:05:46.451Z,110.00
2022-11-14T04:08:32.803Z,105.13
2022-11-14T04:11:19.537Z,94.93
2022-11-14T04:14:05.055Z,105.50
2022-11-14T04:16:50.309Z,104.33
2022-11-14T04:19:35.720Z,108.10
2022-11-14T04:22:21.177Z,115.60
2022-11-14T04:25:08.667Z,113.77
2022-11-14T04:27:53.987Z,110.17
2022-11-14T04:30:39.427Z,104.00
2022-11-14T04:33:24.720Z,109.67
2022-11-14T04:36:10.317Z,110.77
2022-11-14T04:38:55.586Z,115.47
2022-11-14T04:41:40.958Z,109.13
2022-11-14T04:44:26.175Z,101.40
2022-11-14T04:47:11.595Z,106.10
2022-11-14T04:49:56.859Z,103.50
2022-11-14T04:52:42.135Z,105.90
2022-11-14T04:55:27.503Z,116.37
2022-11-14T04:58:12.747Z,116.30
2022-11-14T05:00:58.276Z,111.83
2022-11-14T05:03:43.991Z,106.30
2022-11-14T05:06:29.395Z,125.70
2022-11-14T05:09:14.667Z,114.90
2022-11-14T05:12:00.029Z,124.53
2022-11-14T05:14:45.447Z,102.67
2022-11-14T05:17:30.747Z,116.03
2022-11-14T05:20:16.299Z,123.03
2022-11-14T05:23:01.935Z,117.17
2022-11-14T05:25:47.394Z,114.23
2022-11-14T05:28:33.229Z,117.67
2022-11-14T05:31:18.744Z,115.67
2022-11-14T05:34:04.044Z,118.93
2022-11-14T05:36:49.588Z,111.20
2022-11-14T05:39:34.790Z,111.63
2022-11-14T05:42:20.050Z,127.07
2022-11-14T05:45:05.935Z,102.47
2022-11-14T05:47:54.169Z,117.57
2022-11-14T05:50:39.891Z,119.73
2022-11-14T05:53:26.575Z,124.37
2022-11-14T05:56:13.232Z,117.43
2022-11-14T05:58:58.933Z,123.90
2022-11-14T06:01:44.146Z,122.73
2022-11-14T06:04:29.498Z,119.27
2022-11-14T06:07:19.742Z,123.53
2022-11-14T06:10:05.859Z,124.80
2022-11-14T06:12:51.592Z,119.47
2022-11-14T06:15:36.971Z,128.87
2022-11-14T06:18:22.203Z,121.10
2022-11-14T06:21:12.470Z,125.33
2022-11-14T06:23:58.122Z,125.37
2022-11-14T06:26:43.400Z,132.50
2022-11-14T06:29:34.259Z,112.57
2022-11-14T06:32:21.448Z,121.27
2022-11-14T06:35:08.403Z,121.83
2022-11-14T06:37:54.252Z,115.30
2022-11-14T06:40:39.911Z,120.93
2022-11-14T06:43:25.157Z,124.40
2022-11-14T06:46:13.533Z,126.80
2022-11-14T06:48:58.822Z,120.17
2022-11-14T06:51:44.185Z,110.40
2022-11-14T06:54:29.649Z,113.73
2022-11-14T06:57:14.777Z,114.00
2022-11-14T07:00:00.516Z,118.10
2022-11-14T07:02:47.275Z,123.07
2022-11-14T07:05:32.719Z,116.47
2022-11-14T07:08:21.038Z,114.80
2022-11-14T07:11:22.646Z,116.50
2022-11-14T07:14:09.234Z,110.37
2022-11-14T07:16:54.805Z,112.13
2022-11-14T07:19:39.923Z,106.63
2022-11-14T07:22:25.156Z,112.83
2022-11-14T07:25:10.513Z,114.73
2022-11-14T07:27:58.268Z,104.23
2022-11-14T07:30:43.666Z,122.10
2022-11-14T07:33:31.217Z,96.43
2022-11-14T07:36:18.806Z,97.83
2022-11-14T07:39:04.099Z,105.90
2022-11-14T07:41:49.413Z,100.93
2022-11-14T07:44:34.633Z,116.67
2022-11-14T07:47:20.032Z,107.70
2022-11-14T07:50:05.452Z,96.87
2022-11-14T07:52:52.513Z,115.23
2022-11-14T07:55:39.115Z,110.17
2022-11-14T07:58:24.666Z,114.80
2022-11-14T08:01:12.337Z,106.90
2022-11-14T08:03:57.870Z,111.97
2022-11-14T08:06:43.205Z,102.87
2022-11-14T08:09:28.933Z,117.90
2022-11-14T08:12:14.088Z,110.30
2022-11-14T08:14:59.482Z,108.70
2022-11-14T08:17:44.835Z,105.87
2022-11-14T08:20:30.181Z,118.10
2022-11-14T08:23:15.730Z,124.53
2022-11-14T08:26:01.023Z,128.23
2022-11-14T08:28:46.449Z,109.17
2022-11-14T08:31:31.751Z,107.53
2022-11-14T08:34:17.249Z,124.47
2022-11-14T08:37:03.583Z,108.17
2022-11-14T08:39:48.767Z,113.47
2022-11-14T08:42:34.062Z,116.90
2022-11-14T08:45:19.428Z,119.77
2022-11-14T08:48:05.836Z,100.47
2022-11-14T08:50:51.277Z,107.67
2022-11-14T08:53:36.561Z,116.77
2022-11-14T08:56:21.880Z,113.43
2022-11-14T08:59:07.077Z,129.43
2022-11-14T09:01:52.355Z,124.47
2022-11-14T09:04:38.054Z,110.63
2022-11-14T09:07:23.914Z,108.27
2022-11-14T09:10:09.900Z,104.23
2022-11-14T09:12:59.479Z,104.63
2022-11-14T09:15:45.224Z,114.60
2022-11-14T09:18:31.775Z,116.07
2022-11-14T09:21:17.749Z,109.97
2022-11-14T09:24:03.013Z,110.53
2022-11-14T09:26:55.205Z,104.80
2022-11-14T09:29:42.599Z,118.83
2022-11-14T09:32:27.980Z,111.57
2022-11-14T09:35:13.234Z,112.83
2022-11-14T09:38:07.508Z,101.70
2022-11-14T09:41:26.810Z,100.77
2022-11-14T09:44:39.040Z,110.33
2022-11-14T09:47:40.319Z,108.67
2022-11-14T09:50:31.485Z,103.57
2022-11-14T09:53:31.479Z,101.07
2022-11-14T09:56:24.826Z,99.37
2022-11-14T09:59:14.444Z,105.07
2022-11-14T10:02:44.168Z,94.53
2022-11-14T10:06:08.548Z,102.93
2022-11-14T10:09:32.800Z,94.43
2022-11-14T10:12:28.216Z,105.93
2022-11-14T10:15:46.651Z,86.80
2022-11-14T10:19:10.532Z,90.53
2022-11-14T10:22:43.182Z,95.10
2022-11-14T10:26:09.890Z,90.77
2022-11-14T10:29:06.664Z,98.83
2022-11-14T10:32:28.295Z,100.93
2022-11-14T10:35:49.622Z,91.40
2022-11-14T10:38:45.302Z,97.53
2022-11-14T10:44:44.961Z,98.13
2022-11-14T10:47:40.484Z,95.40
2022-11-14T10:50:51.947Z,104.13
2022-11-14T10:53:53.237Z,96.80
2022-11-14T10:56:55.364Z,98.33
2022-11-14T10:59:40.883Z,94.57
2022-11-14T11:02:26.205Z,91.00
2022-11-14T11:05:18.089Z,96.77
2022-11-14T11:08:43.295Z,88.27
2022-11-14T11:11:29.677Z,83.80
2022-11-14T11:14:19.654Z,93.93
2022-11-14T11:17:11.670Z,85.27
2022-11-14T11:20:27.742Z,90.13
2022-11-14T11:23:22.646Z,84.30
2022-11-14T11:26:19.652Z,87.70
2022-11-14T11:29:18.139Z,88.83
2022-11-14T11:32:04.088Z,87.80
2022-11-14T11:34:51.342Z,84.73
2022-11-14T11:37:44.194Z,83.70
2022-11-14T11:40:30.743Z,85.47
2022-11-14T11:43:39.582Z,89.07
2022-11-14T11:46:48.033Z,89.03
2022-11-14T11:49:53.733Z,95.60
2022-11-14T11:53:08.156Z,85.13
2022-11-14T11:56:00.156Z,90.63
2022-11-14T11:58:51.758Z,83.83
2022-11-14T12:01:37.280Z,79.63
2022-11-14T12:04:22.614Z,87.37
2022-11-14T12:08:00.177Z,83.33
2022-11-14T12:10:45.887Z,86.37
2022-11-14T12:13:55.744Z,80.27
2022-11-14T12:17:15.700Z,78.17
2022-11-14T12:20:14.449Z,82.37
2022-11-14T12:23:58.345Z,87.20
2022-11-14T12:27:26.114Z,95.50
2022-11-14T12:30:18.447Z,94.30
2022-11-14T12:33:12.444Z,78.90
2022-11-14T12:36:01.688Z,90.07
2022-11-14T12:38:54.222Z,91.13
2022-11-14T12:41:40.758Z,96.83
2022-11-14T12:44:29.538Z,87.43
2022-11-14T12:47:25.108Z,83.00
2022-11-14T12:50:40.723Z,83.67
2022-11-14T12:53:37.953Z,85.47
2022-11-14T12:56:54.022Z,80.97
2022-11-14T12:59:50.373Z,90.60
2022-11-14T13:02:57.173Z,81.37
2022-11-14T13:05:57.401Z,89.67
2022-11-14T13:09:25.175Z,92.07
2022-11-14T13:12:52.055Z,94.37
2022-11-14T13:16:06.025Z,82.37
2022-11-14T13:19:35.274Z,84.47
2022-11-14T13:22:40.717Z,92.27
2022-11-14T13:25:26.392Z,86.27
2022-11-14T13:28:50.828Z,81.67
2022-11-14T13:31:36.192Z,92.63
2022-11-14T13:34:45.147Z,92.90
2022-11-14T13:38:15.089Z,90.30
2022-11-14T13:41:46.561Z,94.87
2022-11-14T13:45:17.388Z,86.70
2022-11-14T13:48:25.787Z,97.33
2022-11-14T13:51:41.827Z,83.37
2022-11-14T13:54:21.806Z,97.33
2022-11-14T13:57:26.225Z,89.50
2022-11-14T14:00:20.851Z,91.27
2022-11-14T14:03:52.719Z,93.13
2022-11-14T14:07:16.015Z,86.60
2022-11-14T14:10:25.879Z,95.03
2022-11-14T14:13:40.309Z,85.03
2022-11-14T14:16:39.315Z,95.77
2022-11-14T14:19:52.275Z,97.70
2022-11-14T14:23:27.703Z,82.33
2022-11-14T14:27:02.401Z,99.40
2022-11-14T14:30:04.202Z,82.03
2022-11-14T14:33:08.089Z,79.50
2022-11-14T14:35:54.477Z,83.40
2022-11-14T14:38:39.716Z,84.27
2022-11-14T14:41:31.148Z,79.40
2022-11-14T14:44:31.930Z,96.67
2022-11-14T14:47:33.918Z,93.10
2022-11-14T14:50:26.964Z,76.77
2022-11-14T14:53:26.933Z,90.23
2022-11-14T14:56:27.149Z,100.53
2022-11-14T14:59:22.096Z,81.30
2022-11-14T15:02:17.274Z,83.20
2022-11-14T15:05:03.676Z,88.57
2022-11-14T15:07:51.157Z,93.43
2022-11-14T15:10:37.116Z,81.47
2022-11-14T15:13:24.564Z,88.83
2022-11-14T15:16:10.847Z,90.40
2022-11-14T15:18:58.296Z,75.93
2022-11-14T15:21:44.171Z,84.33
2022-11-14T15:24:29.887Z,83.67
2022-11-14T15:27:18.522Z,91.90
2022-11-14T15:30:08.147Z,84.40
2022-11-14T15:32:59.931Z,71.40
2022-11-14T15:35:45.508Z,81.10
2022-11-14T15:38:43.890Z,79.90
2022-11-14T15:41:34.063Z,82.30
2022-11-14T15:44:33.547Z,89.27
2022-11-14T15:47:32.923Z,83.20
2022-11-14T15:50:18.371Z,91.67
2022-11-14T15:53:20.350Z,79.40
2022-11-14T15:56:05.808Z,91.43
2022-11-14T15:58:51.347Z,89.27
2022-11-14T16:01:37.417Z,80.43
2022-11-14T16:04:30.407Z,88.13
2022-11-14T16:07:18.012Z,81.13
2022-11-14T16:10:03.608Z,98.03
2022-11-14T16:12:52.623Z,71.70
2022-11-14T16:15:38.555Z,80.93
2022-11-14T16:18:23.786Z,84.13
2022-11-14T16:21:16.409Z,69.87
2022-11-14T16:24:01.972Z,86.20
2022-11-14T16:26:47.983Z,78.30
2022-11-14T16:29:33.366Z,70.13
2022-11-14T16:32:18.766Z,67.17
2022-11-14T16:35:04.041Z,73.87
2022-11-14T16:37:50.023Z,71.73
2022-11-14T16:40:35.486Z,77.53
2022-11-14T16:43:21.459Z,67.27
2022-11-14T16:46:07.310Z,75.73
2022-11-14T16:48:52.633Z,69.97
2022-11-14T16:51:48.949Z,76.67
2022-11-14T16:54:35.114Z,86.77
2022-11-14T16:57:20.454Z,89.53
2022-11-14T17:00:09.655Z,78.97
2022-11-14T17:02:55.790Z,77.13
2022-11-14T17:05:45.973Z,77.73
2022-11-14T17:08:31.412Z,81.67
2022-11-14T17:11:16.521Z,84.57
2022-11-14T17:14:01.977Z,80.23
2022-11-14T17:16:47.331Z,81.47
2022-11-14T17:19:32.583Z,77.37
2022-11-14T17:22:19.860Z,75.67
2022-11-14T17:25:05.815Z,83.03
2022-11-14T17:27:51.519Z,91.90
2022-11-14T17:30:43.543Z,84.07
2022-11-14T17:33:29.270Z,98.97
2022-11-14T17:36:15.219Z,83.80
2022-11-14T17:39:00.624Z,84.97
2022-11-14T17:41:46.486Z,84.20
2022-11-14T17:44:31.772Z,75.37
2022-11-14T17:47:17.385Z,78.87
2022-11-14T17:50:02.681Z,73.73
2022-11-14T17:52:47.972Z,84.93
2022-11-14T17:55:33.196Z,95.00
2022-11-14T17:58:18.562Z,93.53
2022-11-14T18:01:15.113Z,96.23
2022-11-14T18:04:05.504Z,91.13
2022-11-14T18:06:52.855Z,80.67
2022-11-14T18:09:39.001Z,88.60
2022-11-14T18:12:24.489Z,89.67
2022-11-14T18:15:11.218Z,92.77
2022-11-14T18:17:56.607Z,84.37
2022-11-14T18:20:41.888Z,75.60
2022-11-14T18:23:27.289Z,83.37
2022-11-14T18:26:15.442Z,82.37
2022-11-14T18:29:02.281Z,72.97
2022-11-14T18:31:48.340Z,79.57
2022-11-14T18:34:36.932Z,76.87
2022-11-14T18:37:23.130Z,88.57
2022-11-14T18:40:16.220Z,78.27
2022-11-14T18:43:02.319Z,82.80
2022-11-14T18:45:47.649Z,79.70
2022-11-14T18:48:33.614Z,89.03
2022-11-14T18:51:23.050Z,89.77
2022-11-14T18:54:14.144Z,87.30
2022-11-14T18:57:00.315Z,89.40
2022-11-14T18:59:45.729Z,87.13
2022-11-14T19:02:31.184Z,88.73
2022-11-14T19:05:17.273Z,83.27
2022-11-14T19:08:03.276Z,90.17
2022-11-14T19:10:48.724Z,74.80
2022-11-14T19:13:34.384Z,84.37
2022-11-14T19:16:20.065Z,81.20
2022-11-14T19:19:06.778Z,91.20
2022-11-14T19:21:52.227Z,75.67
2022-11-14T19:24:38.402Z,101.10
2022-11-14T19:27:23.670Z,78.40
2022-11-14T19:30:09.717Z,86.80
2022-11-14T19:32:54.996Z,82.70
2022-11-14T19:35:40.346Z,84.97
2022-11-14T19:38:25.726Z,85.73
2022-11-14T19:41:21.774Z,78.63
2022-11-14T19:44:07.263Z,87.80
2022-11-14T19:46:52.714Z,91.57
2022-11-14T19:49:38.180Z,87.47
2022-11-14T19:52:23.748Z,91.13
2022-11-14T19:55:09.442Z,89.53
2022-11-14T19:57:54.983Z,83.97
2022-11-14T20:00:40.328Z,91.50
2022-11-14T20:03:25.518Z,104.13
2022-11-14T20:06:34.200Z,104.50
2022-11-14T20:09:19.802Z,92.70
2022-11-14T20:12:05.246Z,89.93
2022-11-14T20:14:50.552Z,83.10
2022-11-14T20:17:35.772Z,96.40
2022-11-14T20:20:21.106Z,82.23
2022-11-14T20:23:06.768Z,97.97
2022-11-14T20:25:52.919Z,102.27
2022-11-14T20:28:39.723Z,96.07
2022-11-14T20:31:28.508Z,100.87
2022-11-14T20:34:13.936Z,100.40
2022-11-14T20:37:14.397Z,99.10
2022-11-14T20:39:59.611Z,102.50
2022-11-14T20:42:49.002Z,110.57
2022-11-14T20:45:34.216Z,95.53
2022-11-14T20:48:19.560Z,103.47
2022-11-14T20:51:25.847Z,92.07
2022-11-14T20:54:11.076Z,98.90
2022-11-14T20:56:56.616Z,114.77
2022-11-14T20:59:42.007Z,97.90
2022-11-14T21:02:27.224Z,96.90
2022-11-14T21:05:12.757Z,105.63
2022-11-14T21:07:57.956Z,86.63
2022-11-14T21:10:49.679Z,82.33
2022-11-14T21:13:58.658Z,105.13
2022-11-14T21:16:44.445Z,83.63
2022-11-14T21:19:29.781Z,100.63
2022-11-14T21:22:15.159Z,103.40
2022-11-14T21:25:01.832Z,100.73
2022-11-14T21:27:47.299Z,94.17
2022-11-14T21:30:34.411Z,101.77
2022-11-14T21:33:19.869Z,81.97
2022-11-14T21:36:23.029Z,93.17
2022-11-14T21:39:14.842Z,89.40
2022-11-14T21:42:00.449Z,87.57
2022-11-14T21:44:45.764Z,85.97
2022-11-14T21:47:31.005Z,90.43
2022-11-14T21:50:16.661Z,91.20
2022-11-14T21:53:02.700Z,90.87
2022-11-14T21:55:48.264Z,92.63
2022-11-14T21:58:33.942Z,93.73
2022-11-14T22:01:40.808Z,99.30
2022-11-14T22:04:26.416Z,97.87
2022-11-14T22:07:11.966Z,93.77
2022-11-14T22:09:57.612Z,92.63
2022-11-14T22:12:42.968Z,93.43
2022-11-14T22:15:28.376Z,81.53
2022-11-14T22:18:13.599Z,99.53
2022-11-14T22:21:01.991Z,93.53
2022-11-14T22:23:47.273Z,102.00
2022-11-14T22:26:35.284Z,94.20
2022-11-14T22:29:20.695Z,91.13
2022-11-14T22:32:05.980Z,88.20
2022-11-14T22:34:51.277Z,95.73
2022-11-14T22:37:36.637Z,85.97
2022-11-14T22:40:22.491Z,89.60
2022-11-14T22:43:08.003Z,97.13
2022-11-14T22:45:53.846Z,96.23
2022-11-14T22:48:39.671Z,97.13
2022-11-14T22:51:27.013Z,100.10
2022-11-14T22:54:13.233Z,100.50
2022-11-14T22:56:58.577Z,80.53
2022-11-14T22:59:44.020Z,86.07
2022-11-14T23:02:29.282Z,100.37
2022-11-14T23:05:14.572Z,92.70
2022-11-14T23:07:59.842Z,99.70
2022-11-14T23:10:46.827Z,89.10
2022-11-14T23:13:37.995Z,91.67
2022-11-14T23:16:26.419Z,90.67
2022-11-14T23:19:11.663Z,94.13
2022-11-14T23:21:57.032Z,82.87
2022-11-14T23:24:42.321Z,92.50
2022-11-14T23:27:27.659Z,95.00
2022-11-14T23:30:14.212Z,90.67
2022-11-14T23:32:59.406Z,88.00
2022-11-14T23:35:44.597Z,92.17
2022-11-14T23:38:32.955Z,94.77
2022-11-14T23:41:25.429Z,82.00
2022-11-14T23:44:11.102Z,85.60
2022-11-14T23:46:56.368Z,84.60
2022-11-14T23:49:41.700Z,78.40
2022-11-14T23:52:27.103Z,76.87
2022-11-14T23:55:12.470Z,82.27
2022-11-14T23:57:57.777Z,85.40
